createdAt,value
2018-01-04T00:00:17.718Z,1.75
2018-01-04T00:02:45.172Z,9.93
2018-01-04T00:05:12.720Z,4.53
2018-01-04T00:07:40.194Z,4.47
2018-01-04T00:10:07.650Z,7.85
2018-01-04T00:12:35.106Z,6.03
2018-01-04T00:15:02.648Z,4.50
2018-01-04T00:17:30.104Z,2.42
2018-01-04T00:19:57.573Z,5.18
2018-01-04T00:22:25.102Z,2.08
2018-01-04T00:24:52.588Z,5.90
2018-01-04T00:27:20.201Z,5.35
2018-01-04T00:29:47.705Z,4.03
2018-01-04T00:32:15.314Z,4.97
2018-01-04T00:34:42.770Z,2.45
2018-01-04T00:37:10.280Z,7.90
2018-01-04T00:39:37.717Z,6.60
2018-01-04T00:42:05.182Z,4.78
2018-01-04T00:44:32.660Z,1.50
2018-01-04T00:47:00.887Z,2.35
2018-01-04T00:49:28.332Z,3.80
2018-01-04T00:51:55.793Z,3.40
2018-01-04T00:54:23.244Z,1.85
2018-01-04T00:56:50.716Z,5.82
2018-01-04T00:59:18.214Z,5.28
2018-01-04T01:01:46.462Z,5.75
2018-01-04T01:04:13.915Z,4.10
2018-01-04T01:06:41.384Z,4.20
2018-01-04T01:09:08.861Z,3.87
2018-01-04T01:11:37.104Z,5.70
2018-01-04T01:14:04.590Z,6.47
2018-01-04T01:16:32.032Z,8.32
2018-01-04T01:18:59.505Z,9.13
2018-01-04T01:21:26.972Z,4.18
2018-01-04T01:23:55.206Z,3.40
2018-01-04T01:26:22.668Z,6.80
2018-01-04T01:28:50.237Z,10.10
2018-01-04T01:31:17.694Z,3.83
2018-01-04T01:33:45.148Z,1.80
2018-01-04T01:36:12.645Z,4.20
2018-01-04T01:38:40.085Z,10.88
2018-01-04T01:41:08.314Z,3.90
2018-01-04T01:43:35.805Z,5.28
2018-01-04T01:46:03.255Z,7.47
2018-01-04T01:48:30.710Z,9.50
2018-01-04T01:50:58.227Z,8.15
2018-01-04T01:53:25.754Z,5.00
2018-01-04T01:55:53.983Z,8.40
2018-01-04T01:58:22.296Z,5.00
2018-01-04T02:00:49.754Z,8.88
2018-01-04T02:03:17.971Z,2.75
2018-01-04T02:05:45.438Z,4.65
2018-01-04T02:08:12.884Z,3.35
2018-01-04T02:10:40.391Z,6.82
2018-01-04T02:13:07.831Z,8.93
2018-01-04T02:15:35.304Z,5.57
2018-01-04T02:21:41.798Z,6.03
2018-01-04T02:24:21.046Z,10.25
2018-01-04T02:27:01.375Z,5.03
2018-01-04T02:29:42.181Z,14.65
2018-01-04T02:32:21.681Z,4.03
2018-01-04T02:35:01.244Z,9.57
2018-01-04T02:37:41.480Z,6.37
2018-01-04T02:40:20.740Z,3.55
2018-01-04T02:43:00.144Z,9.30
2018-01-04T02:45:53.214Z,8.85
2018-01-04T02:48:20.684Z,4.05
2018-01-04T02:50:49.856Z,4.97
2018-01-04T02:53:17.454Z,2.80
2018-01-04T02:55:45.803Z,5.70
2018-01-04T02:58:13.403Z,3.05
2018-01-04T03:00:40.910Z,5.45
2018-01-04T03:03:08.382Z,10.05
2018-01-04T03:05:35.837Z,7.43
2018-01-04T03:08:03.298Z,5.37
2018-01-04T03:10:31.542Z,4.45
2018-01-04T03:12:58.999Z,6.18
2018-01-04T03:15:26.459Z,2.67
2018-01-04T03:17:54.056Z,12.73
2018-01-04T03:20:22.265Z,3.20
2018-01-04T03:22:55.526Z,2.47
2018-01-04T03:25:29.520Z,1.65
2018-01-04T03:28:02.583Z,11.07
2018-01-04T03:30:35.874Z,5.85
2018-01-04T03:33:09.103Z,8.15
2018-01-04T03:35:43.047Z,8.13
2018-01-04T03:38:16.319Z,4.20
2018-01-04T03:40:50.204Z,2.35
2018-01-04T03:43:24.139Z,3.03
2018-01-04T03:45:57.407Z,13.32
2018-01-04T03:48:27.641Z,3.92
2018-01-04T03:51:01.604Z,8.73
2018-01-04T03:53:34.882Z,5.07
2018-01-04T03:56:08.024Z,3.35
2018-01-04T03:58:41.989Z,5.72
2018-01-04T04:01:15.201Z,2.40
2018-01-04T04:03:42.684Z,5.37
2018-01-04T04:06:16.564Z,7.20
2018-01-04T04:08:44.088Z,9.10
2018-01-04T04:11:11.705Z,4.72
2018-01-04T04:13:40.022Z,2.35
2018-01-04T04:16:07.532Z,5.37
2018-01-04T04:18:35.081Z,5.07
2018-01-04T04:21:02.554Z,5.10
2018-01-04T04:23:30.834Z,6.90
2018-01-04T04:25:59.072Z,4.40
2018-01-04T04:28:26.533Z,6.07
2018-01-04T04:30:54.122Z,1.67
2018-01-04T04:33:22.384Z,3.03
2018-01-04T04:35:50.049Z,2.30
2018-01-04T04:38:17.505Z,4.82
2018-01-04T04:40:44.970Z,5.57
2018-01-04T04:43:13.247Z,4.07
2018-01-04T04:45:40.699Z,3.10
2018-01-04T04:48:08.265Z,3.05
2018-01-04T04:50:36.519Z,4.90
2018-01-04T04:53:05.480Z,2.00
2018-01-04T04:55:32.937Z,5.43
2018-01-04T04:58:00.393Z,6.72
2018-01-04T05:00:27.851Z,1.62
2018-01-04T05:02:55.399Z,6.82
2018-01-04T05:05:22.897Z,1.80
2018-01-04T05:07:50.376Z,10.35
2018-01-04T05:10:18.601Z,3.15
2018-01-04T05:12:46.076Z,7.70
2018-01-04T05:15:13.537Z,2.95
2018-01-04T05:17:41.106Z,3.67
2018-01-04T05:20:08.565Z,6.85
2018-01-04T05:22:36.016Z,6.57
2018-01-04T05:25:03.472Z,2.90
2018-01-04T05:27:30.946Z,10.45
2018-01-04T05:29:59.185Z,8.48
2018-01-04T05:32:26.656Z,4.05
2018-01-04T05:34:54.105Z,6.68
2018-01-04T05:37:21.573Z,14.13
2018-01-04T05:39:49.035Z,5.32
2018-01-04T05:42:16.596Z,5.87
2018-01-04T05:44:44.048Z,6.25
2018-01-04T05:47:11.510Z,7.53
2018-01-04T05:49:38.968Z,3.30
2018-01-04T05:52:06.432Z,9.20
2018-01-04T05:54:33.892Z,4.05
2018-01-04T05:57:02.139Z,10.00
2018-01-04T05:59:29.597Z,7.93
2018-01-04T06:01:57.155Z,3.53
2018-01-04T06:04:24.638Z,4.55
2018-01-04T06:06:52.860Z,8.93
2018-01-04T06:09:20.357Z,6.70
2018-01-04T06:11:47.812Z,3.60
2018-01-04T06:14:15.325Z,3.03
2018-01-04T06:16:42.789Z,9.57
2018-01-04T06:19:10.269Z,6.93
2018-01-04T06:21:37.827Z,4.55
2018-01-04T06:24:05.283Z,6.18
2018-01-04T06:26:32.744Z,5.30
2018-01-04T06:29:00.229Z,7.05
2018-01-04T06:31:28.462Z,4.65
2018-01-04T06:33:55.929Z,4.28
2018-01-04T06:36:23.387Z,6.40
2018-01-04T06:38:50.870Z,5.47
2018-01-04T06:41:19.236Z,4.50
2018-01-04T06:43:46.787Z,6.07
2018-01-04T06:46:14.252Z,9.40
2018-01-04T06:48:41.721Z,11.65
2018-01-04T06:51:10.037Z,6.93
2018-01-04T06:53:37.497Z,7.28
2018-01-04T06:56:04.953Z,5.12
2018-01-04T06:58:32.453Z,7.18
2018-01-04T07:00:59.965Z,9.27
2018-01-04T07:03:27.413Z,3.28
2018-01-04T07:05:54.893Z,4.15
2018-01-04T07:08:22.343Z,6.87
2018-01-04T07:10:49.804Z,8.65
2018-01-04T07:13:17.313Z,8.20
2018-01-04T07:15:45.589Z,15.15
2018-01-04T07:18:13.825Z,11.63
2018-01-04T07:20:41.302Z,7.37
2018-01-04T07:23:09.575Z,7.93
2018-01-04T07:25:37.120Z,8.38
2018-01-04T07:28:04.592Z,8.23
2018-01-04T07:30:32.056Z,7.72
2018-01-04T07:32:59.530Z,6.20
2018-01-04T07:35:27.744Z,4.10
2018-01-04T07:37:55.224Z,15.63
2018-01-04T07:40:22.676Z,5.25
2018-01-04T07:42:50.157Z,7.55
2018-01-04T07:45:17.612Z,10.32
2018-01-04T07:47:45.082Z,7.40
2018-01-04T07:50:13.391Z,9.85
2018-01-04T07:52:40.836Z,8.95
2018-01-04T07:55:08.292Z,13.18
2018-01-04T07:57:35.853Z,6.10
2018-01-04T08:00:03.307Z,4.80
2018-01-04T08:02:30.766Z,13.57
2018-01-04T08:04:58.272Z,13.38
2018-01-04T08:07:25.731Z,9.55
2018-01-04T08:09:53.206Z,10.32
2018-01-04T08:12:21.438Z,6.80
2018-01-04T08:14:48.978Z,10.05
2018-01-04T08:17:16.428Z,10.80
2018-01-04T08:19:43.943Z,9.15
2018-01-04T08:22:11.492Z,11.20
2018-01-04T08:24:38.944Z,5.85
2018-01-04T08:27:06.513Z,8.63
2018-01-04T08:29:34.765Z,7.47
2018-01-04T08:32:02.216Z,9.38
2018-01-04T08:34:29.684Z,6.70
2018-01-04T08:36:57.164Z,9.90
2018-01-04T08:39:24.623Z,9.77
2018-01-04T08:41:52.084Z,10.48
2018-01-04T08:44:19.552Z,10.65
2018-01-04T08:46:47.810Z,7.32
2018-01-04T08:49:15.277Z,18.58
2018-01-04T08:51:43.573Z,8.23
2018-01-04T08:54:11.785Z,7.85
2018-01-04T08:56:39.240Z,5.50
2018-01-04T08:59:06.696Z,7.68
2018-01-04T09:01:34.170Z,8.25
2018-01-04T09:04:01.640Z,16.00
2018-01-04T09:06:29.193Z,12.95
2018-01-04T09:08:56.761Z,2.95
2018-01-04T09:11:24.214Z,8.02
2018-01-04T09:13:51.770Z,8.50
2018-01-04T09:16:20.047Z,8.77
2018-01-04T09:18:47.604Z,6.85
2018-01-04T09:21:15.153Z,7.18
2018-01-04T09:23:42.626Z,8.13
2018-01-04T09:26:10.175Z,13.98
2018-01-04T09:28:37.628Z,7.30
2018-01-04T09:31:05.152Z,7.28
2018-01-04T09:33:32.654Z,12.18
2018-01-04T09:36:00.118Z,6.90
2018-01-04T09:38:27.585Z,9.40
2018-01-04T09:40:55.806Z,7.10
2018-01-04T09:43:23.261Z,9.88
2018-01-04T09:45:50.709Z,5.45
2018-01-04T09:48:18.195Z,10.02
2018-01-04T09:50:45.652Z,14.75
2018-01-04T09:53:13.115Z,11.68
2018-01-04T09:55:40.587Z,13.23
2018-01-04T09:58:08.139Z,9.25
2018-01-04T10:00:35.605Z,15.63
2018-01-04T10:03:03.066Z,9.07
2018-01-04T10:05:31.318Z,15.85
2018-01-04T10:07:58.764Z,9.85
2018-01-04T10:10:26.292Z,11.52
2018-01-04T10:12:53.740Z,15.27
2018-01-04T10:15:21.212Z,16.67
2018-01-04T10:17:48.674Z,14.43
2018-01-04T10:20:16.172Z,13.05
2018-01-04T10:22:43.644Z,17.23
2018-01-04T10:25:11.862Z,9.82
2018-01-04T10:27:39.348Z,6.93
2018-01-04T10:30:06.884Z,7.37
2018-01-04T10:32:34.355Z,10.07
2018-01-04T10:35:01.923Z,11.40
2018-01-04T10:37:29.492Z,29.52
2018-01-04T10:39:56.947Z,16.70
2018-01-04T10:42:24.407Z,10.52
2018-01-04T10:44:51.937Z,10.40
2018-01-04T10:47:19.423Z,12.35
2018-01-04T10:49:46.872Z,22.40
2018-01-04T10:52:14.438Z,9.98
2018-01-04T10:54:41.895Z,11.93
2018-01-04T10:57:09.361Z,9.95
2018-01-04T10:59:37.582Z,18.73
2018-01-04T11:02:05.040Z,10.20
2018-01-04T11:04:32.534Z,9.25
2018-01-04T11:07:00.008Z,13.82
2018-01-04T11:09:28.224Z,10.40
2018-01-04T11:11:55.708Z,18.48
2018-01-04T11:14:23.182Z,14.40
2018-01-04T11:16:50.655Z,16.92
2018-01-04T11:19:18.872Z,9.77
2018-01-04T11:21:46.549Z,11.48
2018-01-04T11:24:14.012Z,7.12
2018-01-04T11:26:41.474Z,9.88
2018-01-04T11:29:08.935Z,9.43
2018-01-04T11:31:36.388Z,14.65
2018-01-04T11:34:04.728Z,16.67
2018-01-04T11:36:32.231Z,10.95
2018-01-04T11:38:59.701Z,15.75
2018-01-04T11:41:28.019Z,20.02
2018-01-04T11:43:55.577Z,10.05
2018-01-04T11:46:23.034Z,15.10
2018-01-04T11:48:50.498Z,16.12
2018-01-04T11:51:17.958Z,15.25
2018-01-04T11:53:45.900Z,14.65
2018-01-04T11:56:14.188Z,15.30
2018-01-04T11:58:41.690Z,14.63
2018-01-04T12:01:09.257Z,17.27
2018-01-04T12:03:36.735Z,18.30
2018-01-04T12:06:04.974Z,25.77
2018-01-04T12:08:32.461Z,11.65
2018-01-04T12:11:00.008Z,16.55
2018-01-04T12:13:27.616Z,13.45
2018-01-04T12:15:55.082Z,27.23
2018-01-04T12:18:22.543Z,12.95
2018-01-04T12:20:49.995Z,17.48
2018-01-04T12:23:17.486Z,21.02
2018-01-04T12:25:45.712Z,12.85
2018-01-04T12:28:13.182Z,16.17
2018-01-04T12:30:46.363Z,15.85
2018-01-04T12:33:13.838Z,19.75
2018-01-04T12:35:41.341Z,13.77
2018-01-04T12:38:09.578Z,19.83
2018-01-04T12:40:37.061Z,19.52
2018-01-04T12:43:04.524Z,22.00
2018-01-04T12:45:31.976Z,16.60
2018-01-04T12:47:59.502Z,13.68
2018-01-04T12:50:26.956Z,8.55
2018-01-04T12:52:54.428Z,8.45
2018-01-04T12:55:21.988Z,13.23
2018-01-04T12:57:49.481Z,8.02
2018-01-04T13:00:17.701Z,13.95
2018-01-04T13:02:45.242Z,20.42
2018-01-04T13:05:12.718Z,11.07
2018-01-04T13:07:40.178Z,13.48
2018-01-04T13:10:07.766Z,21.50
2018-01-04T13:12:35.226Z,11.45
2018-01-04T13:15:02.831Z,17.92
2018-01-04T13:17:30.276Z,23.73
2018-01-04T13:19:57.732Z,19.60
2018-01-04T13:22:25.245Z,22.75
2018-01-04T13:24:52.706Z,13.93
2018-01-04T13:27:20.216Z,15.15
2018-01-04T13:29:47.678Z,16.42
2018-01-04T13:32:15.164Z,21.33
2018-01-04T13:34:42.728Z,16.85
2018-01-04T13:37:10.190Z,13.07
2018-01-04T13:39:37.668Z,30.90
2018-01-04T13:42:05.898Z,15.07
2018-01-04T13:44:33.344Z,15.75
2018-01-04T13:47:00.891Z,26.48
2018-01-04T13:49:28.451Z,12.77
2018-01-04T13:51:55.940Z,17.45
2018-01-04T13:54:23.413Z,16.55
2018-01-04T13:56:50.859Z,13.55
2018-01-04T13:59:18.336Z,11.10
2018-01-04T14:01:45.792Z,17.08
2018-01-04T14:04:13.254Z,10.88
2018-01-04T14:06:41.477Z,17.60
2018-01-04T14:09:08.973Z,11.48
2018-01-04T14:11:36.520Z,16.37
2018-01-04T14:14:03.975Z,14.32
2018-01-04T14:16:31.494Z,16.45
2018-01-04T14:18:58.996Z,11.80
2018-01-04T14:21:27.231Z,17.25
2018-01-04T14:23:54.694Z,22.73
2018-01-04T14:26:22.194Z,13.62
2018-01-04T14:28:49.754Z,12.80
2018-01-04T14:31:17.980Z,13.75
2018-01-04T14:33:45.445Z,15.73
2018-01-04T14:36:12.990Z,14.32
2018-01-04T14:38:40.499Z,11.00
2018-01-04T14:41:08.052Z,19.50
2018-01-04T14:43:36.314Z,16.45
2018-01-04T14:46:03.796Z,26.73
2018-01-04T14:48:32.221Z,12.45
2018-01-04T14:50:59.680Z,10.82
2018-01-04T14:53:27.162Z,18.92
2018-01-04T14:55:54.644Z,11.77
2018-01-04T14:58:22.202Z,9.00
2018-01-04T15:00:50.441Z,18.00
2018-01-04T15:03:17.936Z,15.63
2018-01-04T15:05:45.496Z,14.82
2018-01-04T15:08:13.058Z,19.10
2018-01-04T15:10:41.284Z,20.58
2018-01-04T15:13:08.781Z,16.15
2018-01-04T15:15:36.237Z,22.33
2018-01-04T15:18:03.704Z,9.77
2018-01-04T15:20:31.932Z,18.98
2018-01-04T15:22:59.401Z,8.57
2018-01-04T15:25:26.882Z,10.68
2018-01-04T15:27:55.860Z,17.45
2018-01-04T15:30:23.330Z,18.20
2018-01-04T15:32:50.796Z,23.42
2018-01-04T15:35:18.243Z,15.75
2018-01-04T15:37:45.717Z,19.37
2018-01-04T15:40:13.947Z,17.62
2018-01-04T15:42:41.438Z,16.00
2018-01-04T15:45:09.684Z,17.12
2018-01-04T15:47:37.168Z,20.37
2018-01-04T15:50:04.776Z,21.52
2018-01-04T15:52:32.231Z,17.83
2018-01-04T15:54:59.693Z,12.27
2018-01-04T15:57:27.168Z,22.08
2018-01-04T15:59:54.644Z,23.25
2018-01-04T16:02:22.099Z,24.87
2018-01-04T16:04:49.655Z,24.33
2018-01-04T16:07:17.233Z,14.95
2018-01-04T16:09:44.799Z,22.80
2018-01-04T16:12:13.054Z,20.50
2018-01-04T16:14:40.521Z,15.02
2018-01-04T16:17:08.086Z,20.37
2018-01-04T16:19:36.366Z,25.50
2018-01-04T16:22:04.645Z,24.33
2018-01-04T16:24:32.889Z,26.52
2018-01-04T16:27:00.407Z,22.58
2018-01-04T16:29:28.623Z,19.92
2018-01-04T16:31:56.097Z,20.33
2018-01-04T16:34:23.657Z,20.83
2018-01-04T16:36:51.206Z,16.92
2018-01-04T16:39:18.672Z,20.05
2018-01-04T16:41:46.233Z,21.10
2018-01-04T16:44:13.791Z,22.25
2018-01-04T16:46:41.349Z,26.20
2018-01-04T16:49:08.810Z,25.55
2018-01-04T16:51:37.081Z,14.70
2018-01-04T16:54:04.928Z,20.60
2018-01-04T16:56:32.381Z,20.05
2018-01-04T16:58:59.848Z,19.12
2018-01-04T17:01:27.303Z,21.27
2018-01-04T17:03:54.770Z,14.90
2018-01-04T17:06:22.329Z,20.37
2018-01-04T17:08:49.783Z,20.92
2018-01-04T17:11:17.334Z,18.25
2018-01-04T17:13:44.814Z,14.57
2018-01-04T17:16:13.060Z,26.90
2018-01-04T17:18:40.642Z,15.25
2018-01-04T17:21:08.187Z,21.27
2018-01-04T17:23:35.747Z,17.73
2018-01-04T17:26:03.224Z,14.25
2018-01-04T17:28:31.453Z,16.95
2018-01-04T17:30:59.013Z,30.52
2018-01-04T17:33:26.503Z,23.60
2018-01-04T17:35:54.048Z,21.10
2018-01-04T17:38:21.521Z,23.35
2018-01-04T17:40:49.769Z,19.77
2018-01-04T17:43:17.260Z,19.42
2018-01-04T17:45:45.480Z,23.52
2018-01-04T17:48:12.946Z,21.62
2018-01-04T17:50:40.428Z,33.95
2018-01-04T17:53:07.999Z,17.23
2018-01-04T17:55:35.443Z,24.35
2018-01-04T17:58:03.004Z,27.62
2018-01-04T18:00:30.568Z,24.95
2018-01-04T18:02:58.080Z,15.38
2018-01-04T18:05:25.592Z,25.55
2018-01-04T18:07:53.852Z,21.67
2018-01-04T18:10:21.477Z,16.37
2018-01-04T18:12:48.957Z,17.02
2018-01-04T18:15:16.542Z,22.73
2018-01-04T18:17:44.102Z,12.77
2018-01-04T18:20:11.562Z,18.58
2018-01-04T18:22:39.060Z,12.55
2018-01-04T18:25:06.521Z,15.15
2018-01-04T18:27:33.992Z,17.87
2018-01-04T18:30:01.477Z,22.60
2018-01-04T18:32:29.061Z,26.67
2018-01-04T18:34:57.295Z,19.95
2018-01-04T18:37:24.827Z,13.23
2018-01-04T18:39:52.307Z,15.40
2018-01-04T18:42:19.769Z,11.95
2018-01-04T18:44:47.251Z,25.90
2018-01-04T18:47:14.810Z,18.85
2018-01-04T18:49:43.090Z,19.80
2018-01-04T18:52:11.347Z,13.35
2018-01-04T18:54:38.804Z,17.98
2018-01-04T18:57:06.274Z,19.87
2018-01-04T18:59:34.554Z,21.40
2018-01-04T19:02:02.798Z,13.73
2018-01-04T19:04:30.255Z,13.98
2018-01-04T19:06:57.741Z,15.10
2018-01-04T19:09:26.035Z,14.48
2018-01-04T19:11:53.488Z,18.10
2018-01-04T19:14:21.024Z,20.55
2018-01-04T19:16:48.487Z,8.07
2018-01-04T19:19:16.734Z,10.50
2018-01-04T19:21:44.421Z,20.95
2018-01-04T19:24:11.980Z,18.80
2018-01-04T19:26:40.327Z,14.25
2018-01-04T19:29:07.825Z,11.98
2018-01-04T19:31:36.238Z,16.73
2018-01-04T19:34:03.715Z,11.50
2018-01-04T19:36:31.270Z,11.50
2018-01-04T19:38:58.721Z,13.18
2018-01-04T19:41:26.206Z,9.20
2018-01-04T19:43:53.691Z,13.55
2018-01-04T19:46:21.935Z,19.52
2018-01-04T19:48:50.981Z,10.68
2018-01-04T19:51:18.456Z,15.02
2018-01-04T19:53:45.912Z,8.90
2018-01-04T19:56:13.398Z,8.73
2018-01-04T19:58:41.036Z,8.93
2018-01-04T20:01:08.492Z,12.05
2018-01-04T20:03:35.976Z,14.77
2018-01-04T20:06:03.548Z,19.58
2018-01-04T20:08:31.026Z,15.10
2018-01-04T20:10:59.252Z,16.45
2018-01-04T20:13:26.781Z,12.85
2018-01-04T20:15:54.276Z,12.70
2018-01-04T20:18:21.842Z,17.48
2018-01-04T20:20:49.346Z,16.70
2018-01-04T20:23:16.818Z,19.27
2018-01-04T20:25:44.298Z,13.77
2018-01-04T20:28:11.924Z,14.77
2018-01-04T20:30:39.328Z,13.20
2018-01-04T20:33:06.880Z,8.13
2018-01-04T20:35:34.430Z,7.95
2018-01-04T20:38:01.969Z,8.15
2018-01-04T20:40:29.479Z,8.50
2018-01-04T20:42:57.724Z,6.40
2018-01-04T20:45:25.330Z,5.47
2018-01-04T20:47:53.563Z,4.62
2018-01-04T20:50:21.030Z,4.57
2018-01-04T20:52:48.579Z,10.27
2018-01-04T20:55:16.140Z,8.75
2018-01-04T20:57:43.761Z,4.20
2018-01-04T21:00:11.270Z,6.55
2018-01-04T21:02:38.821Z,7.03
2018-01-04T21:05:06.375Z,11.82
2018-01-04T21:07:33.837Z,4.45
2018-01-04T21:10:01.288Z,4.97
2018-01-04T21:12:28.868Z,16.37
2018-01-04T21:14:57.126Z,2.55
2018-01-04T21:17:24.602Z,8.38
2018-01-04T21:19:52.885Z,5.45
2018-01-04T21:22:21.162Z,13.70
2018-01-04T21:24:49.472Z,11.63
2018-01-04T21:27:16.977Z,10.85
2018-01-04T21:29:44.440Z,11.05
2018-01-04T21:32:11.896Z,11.10
2018-01-04T21:34:40.156Z,15.30
2018-01-04T21:37:07.638Z,10.15
2018-01-04T21:39:35.869Z,13.85
2018-01-04T21:42:03.378Z,5.93
2018-01-04T21:44:31.620Z,7.45
2018-01-04T21:46:59.076Z,10.23
2018-01-04T21:49:26.637Z,10.15
2018-01-04T21:51:54.197Z,6.47
2018-01-04T21:54:21.685Z,16.12
2018-01-04T21:56:49.904Z,6.35
2018-01-04T21:59:17.377Z,9.63
2018-01-04T22:01:44.845Z,4.47
2018-01-04T22:04:12.329Z,15.05
2018-01-04T22:06:40.578Z,7.62
2018-01-04T22:09:08.062Z,6.93
2018-01-04T22:11:36.289Z,6.03
2018-01-04T22:14:03.747Z,8.32
2018-01-04T22:16:32.965Z,3.22
2018-01-04T22:19:00.421Z,8.43
2018-01-04T22:21:27.908Z,6.75
2018-01-04T22:23:55.813Z,4.10
2018-01-04T22:26:23.518Z,5.62
2018-01-04T22:28:51.754Z,5.28
2018-01-04T22:31:19.238Z,3.45
2018-01-04T22:33:46.720Z,4.82
2018-01-04T22:36:14.975Z,4.28
2018-01-04T22:38:42.442Z,8.13
2018-01-04T22:41:12.497Z,5.53
2018-01-04T22:43:40.009Z,6.07
2018-01-04T22:46:07.472Z,3.40
2018-01-04T22:48:35.741Z,6.93
2018-01-04T22:51:03.225Z,4.35
2018-01-04T22:53:30.747Z,4.37
2018-01-04T22:55:58.335Z,3.00
2018-01-04T22:58:25.771Z,5.03
2018-01-04T23:00:53.267Z,6.05
2018-01-04T23:03:20.936Z,4.20
2018-01-04T23:05:48.495Z,3.75
2018-01-04T23:08:15.949Z,6.32
2018-01-04T23:10:43.681Z,4.28
2018-01-04T23:13:11.219Z,6.12
2018-01-04T23:15:38.676Z,9.70
2018-01-04T23:18:06.237Z,3.87
2018-01-04T23:20:33.683Z,6.30
2018-01-04T23:23:01.253Z,4.18
2018-01-04T23:25:28.710Z,5.78
2018-01-04T23:27:56.273Z,3.35
2018-01-04T23:30:23.840Z,6.72
2018-01-04T23:32:51.377Z,13.45
2018-01-04T23:35:18.845Z,8.38
2018-01-04T23:37:46.406Z,5.12
2018-01-04T23:40:13.960Z,5.15
2018-01-04T23:42:41.533Z,5.40
2018-01-04T23:45:09.801Z,5.50
2018-01-04T23:47:37.358Z,3.70
2018-01-04T23:50:04.812Z,6.40
2018-01-04T23:52:32.368Z,4.25
2018-01-04T23:54:59.878Z,5.78
2018-01-04T23:57:27.316Z,4.72
2018-01-04T23:59:54.845Z,4.25
